sensor_id;sensor_type;location;lat;lon;timestamp;temperature;humidity
68981;SHT35;56033;51.880;12.632;2022-09-16T06:36:47;20.28;59.24
68981;SHT35;56033;51.880;12.632;2022-09-16T06:39:14;20.04;59.94
68981;SHT35;56033;51.880;12.632;2022-09-16T06:41:40;19.97;60.23
68981;SHT35;56033;51.880;12.632;2022-09-16T06:44:06;19.93;60.25
68981;SHT35;56033;51.880;12.632;2022-09-16T06:46:33;19.96;60.28
68981;SHT35;56033;51.880;12.632;2022-09-16T06:49:01;19.93;60.25
68981;SHT35;56033;51.880;12.632;2022-09-16T06:51:29;19.89;60.33
68981;SHT35;56033;51.880;12.632;2022-09-16T06:53:58;19.89;60.45
68981;SHT35;56033;51.880;12.632;2022-09-16T06:56:27;19.90;60.44
68981;SHT35;56033;51.880;12.632;2022-09-16T06:58:52;19.90;60.52
68981;SHT35;56033;51.880;12.632;2022-09-16T07:01:22;19.89;60.43
68981;SHT35;56033;51.880;12.632;2022-09-16T07:03:49;19.87;60.43
68981;SHT35;56033;51.880;12.632;2022-09-16T07:06:16;19.90;60.44
68981;SHT35;56033;51.880;12.632;2022-09-16T07:08:42;19.89;60.41
68981;SHT35;56033;51.880;12.632;2022-09-16T07:11:13;19.91;60.41
68981;SHT35;56033;51.880;12.632;2022-09-16T07:13:39;19.91;60.42
68981;SHT35;56033;51.880;12.632;2022-09-16T07:16:08;19.94;60.39
68981;SHT35;56033;51.880;12.632;2022-09-16T07:18:33;19.94;60.26
68981;SHT35;56033;51.880;12.632;2022-09-16T07:21:04;19.97;60.23
68981;SHT35;56033;51.880;12.632;2022-09-16T07:23:33;20.00;60.18
68981;SHT35;56033;51.880;12.632;2022-09-16T07:26:04;20.04;60.02
68981;SHT35;56033;51.880;12.632;2022-09-16T07:28:30;19.61;60.59
68981;SHT35;56033;51.880;12.632;2022-09-16T07:31:00;19.89;60.45
68981;SHT35;56033;51.880;12.632;2022-09-16T07:34:10;19.77;60.11
68981;SHT35;56033;51.880;12.632;2022-09-16T07:37:03;19.84;60.00
68981;SHT35;56033;51.880;12.632;2022-09-16T07:39:45;19.86;60.10
68981;SHT35;56033;51.880;12.632;2022-09-16T07:52:40;20.01;59.88
68981;SHT35;56033;51.880;12.632;2022-09-16T07:55:06;20.03;59.85
68981;SHT35;56033;51.880;12.632;2022-09-16T08:01:18;20.06;59.89
68981;SHT35;56033;51.880;12.632;2022-09-16T08:04:00;20.01;59.94
68981;SHT35;56033;51.880;12.632;2022-09-16T08:07:03;20.03;59.98
68981;SHT35;56033;51.880;12.632;2022-09-16T08:09:47;20.07;59.88
68981;SHT35;56033;51.880;12.632;2022-09-16T08:12:16;20.08;59.78
68981;SHT35;56033;51.880;12.632;2022-09-16T08:14:44;20.03;59.86
68981;SHT35;56033;51.880;12.632;2022-09-16T08:17:09;20.06;59.88
68981;SHT35;56033;51.880;12.632;2022-09-16T08:19:37;20.07;59.89
68981;SHT35;56033;51.880;12.632;2022-09-16T08:22:25;20.07;59.87
68981;SHT35;56033;51.880;12.632;2022-09-16T08:24:51;20.07;59.94
68981;SHT35;56033;51.880;12.632;2022-09-16T08:27:36;20.04;59.94
68981;SHT35;56033;51.880;12.632;2022-09-16T08:30:03;20.04;59.99
68981;SHT35;56033;51.880;12.632;2022-09-16T08:32:31;20.04;60.01
68981;SHT35;56033;51.880;12.632;2022-09-16T08:35:11;20.01;60.04
68981;SHT35;56033;51.880;12.632;2022-09-16T08:37:39;20.03;59.97
68981;SHT35;56033;51.880;12.632;2022-09-16T08:40:20;20.01;59.93
68981;SHT35;56033;51.880;12.632;2022-09-16T08:49:44;20.08;59.93
68981;SHT35;56033;51.880;12.632;2022-09-16T08:52:47;20.03;59.94
68981;SHT35;56033;51.880;12.632;2022-09-16T08:55:33;20.06;59.95
68981;SHT35;56033;51.880;12.632;2022-09-16T08:58:06;20.04;59.94
68981;SHT35;56033;51.880;12.632;2022-09-16T09:00:36;20.04;59.97
68981;SHT35;56033;51.880;12.632;2022-09-16T09:03:37;20.01;59.96
68981;SHT35;56033;51.880;12.632;2022-09-16T09:09:47;20.06;59.91
68981;SHT35;56033;51.880;12.632;2022-09-16T09:15:41;20.10;59.85
68981;SHT35;56033;51.880;12.632;2022-09-16T09:18:43;20.04;59.88
68981;SHT35;56033;51.880;12.632;2022-09-16T09:21:49;20.11;59.83
68981;SHT35;56033;51.880;12.632;2022-09-16T09:24:53;20.13;59.63
68981;SHT35;56033;51.880;12.632;2022-09-16T09:30:33;20.14;59.64
68981;SHT35;56033;51.880;12.632;2022-09-16T09:33:17;20.13;59.65
68981;SHT35;56033;51.880;12.632;2022-09-16T09:36:26;20.11;59.61
68981;SHT35;56033;51.880;12.632;2022-09-16T09:45:30;20.17;59.46
68981;SHT35;56033;51.880;12.632;2022-09-16T09:55:12;20.11;59.62
68981;SHT35;56033;51.880;12.632;2022-09-16T10:00:56;20.15;59.54
68981;SHT35;56033;51.880;12.632;2022-09-16T10:03:42;20.15;59.56
68981;SHT35;56033;51.880;12.632;2022-09-16T10:06:33;20.17;59.47
68981;SHT35;56033;51.880;12.632;2022-09-16T10:09:10;20.13;59.55
68981;SHT35;56033;51.880;12.632;2022-09-16T10:16:13;20.21;59.22
68981;SHT35;56033;51.880;12.632;2022-09-16T10:22:33;20.17;59.38
68981;SHT35;56033;51.880;12.632;2022-09-16T10:25:01;20.28;58.86
68981;SHT35;56033;51.880;12.632;2022-09-16T10:27:33;20.32;58.81
68981;SHT35;56033;51.880;12.632;2022-09-16T10:30:18;20.45;58.43
68981;SHT35;56033;51.880;12.632;2022-09-16T10:33:06;20.36;58.63
68981;SHT35;56033;51.880;12.632;2022-09-16T10:35:50;20.62;58.04
68981;SHT35;56033;51.880;12.632;2022-09-16T10:38:40;20.80;57.36
68981;SHT35;56033;51.880;12.632;2022-09-16T10:41:14;20.93;57.03
68981;SHT35;56033;51.880;12.632;2022-09-16T10:43:50;20.72;57.51
68981;SHT35;56033;51.880;12.632;2022-09-16T10:46:19;20.66;57.88
68981;SHT35;56033;51.880;12.632;2022-09-16T10:48:46;20.80;57.39
68981;SHT35;56033;51.880;12.632;2022-09-16T10:51:27;20.83;57.43
68981;SHT35;56033;51.880;12.632;2022-09-16T10:54:02;20.91;57.03
68981;SHT35;56033;51.880;12.632;2022-09-16T10:56:33;21.06;56.45
68981;SHT35;56033;51.880;12.632;2022-09-16T10:59:10;21.03;56.67
68981;SHT35;56033;51.880;12.632;2022-09-16T11:10:26;20.70;57.59
68981;SHT35;56033;51.880;12.632;2022-09-16T11:13:19;20.53;57.97
68981;SHT35;56033;51.880;12.632;2022-09-16T11:30:12;21.11;55.96
68981;SHT35;56033;51.880;12.632;2022-09-16T11:41:42;21.38;54.82
68981;SHT35;56033;51.880;12.632;2022-09-16T11:47:38;21.37;55.18
68981;SHT35;56033;51.880;12.632;2022-09-16T11:50:15;21.31;54.66
68981;SHT35;56033;51.880;12.632;2022-09-16T11:59:31;21.23;55.18
68981;SHT35;56033;51.880;12.632;2022-09-16T12:04:38;21.23;55.33
68981;SHT35;56033;51.880;12.632;2022-09-16T12:07:28;20.80;56.42
68981;SHT35;56033;51.880;12.632;2022-09-16T12:13:15;21.20;55.81
68981;SHT35;56033;51.880;12.632;2022-09-16T12:15:51;21.31;55.60
68981;SHT35;56033;51.880;12.632;2022-09-16T12:18:25;21.34;55.54
68981;SHT35;56033;51.880;12.632;2022-09-16T12:21:10;21.35;55.36
68981;SHT35;56033;51.880;12.632;2022-09-16T12:24:16;21.01;56.23
68981;SHT35;56033;51.880;12.632;2022-09-16T12:27:14;20.79;56.97
68981;SHT35;56033;51.880;12.632;2022-09-16T12:30:28;20.73;57.29
68981;SHT35;56033;51.880;12.632;2022-09-16T12:33:19;20.63;57.70
68981;SHT35;56033;51.880;12.632;2022-09-16T12:36:29;20.61;57.68
68981;SHT35;56033;51.880;12.632;2022-09-16T12:39:10;20.55;57.61
68981;SHT35;56033;51.880;12.632;2022-09-16T12:48:29;20.51;57.62
68981;SHT35;56033;51.880;12.632;2022-09-16T13:02:58;20.56;57.46
68981;SHT35;56033;51.880;12.632;2022-09-16T13:06:18;20.62;57.33
68981;SHT35;56033;51.880;12.632;2022-09-16T13:08:53;20.65;57.36
68981;SHT35;56033;51.880;12.632;2022-09-16T13:11:28;20.45;55.31
68981;SHT35;56033;51.880;12.632;2022-09-16T13:13:57;20.53;55.46
68981;SHT35;56033;51.880;12.632;2022-09-16T13:16:34;20.52;56.13
68981;SHT35;56033;51.880;12.632;2022-09-16T13:21:59;20.55;56.10
68981;SHT35;56033;51.880;12.632;2022-09-16T13:24:52;20.55;56.90
68981;SHT35;56033;51.880;12.632;2022-09-16T13:27:55;20.55;54.61
68981;SHT35;56033;51.880;12.632;2022-09-16T13:30:31;20.39;52.44
68981;SHT35;56033;51.880;12.632;2022-09-16T13:33:32;20.34;51.73
68981;SHT35;56033;51.880;12.632;2022-09-16T13:43:01;20.24;50.72
68981;SHT35;56033;51.880;12.632;2022-09-16T13:45:45;20.35;50.57
68981;SHT35;56033;51.880;12.632;2022-09-16T13:48:17;20.42;51.97
68981;SHT35;56033;51.880;12.632;2022-09-16T13:50:56;20.21;52.51
68981;SHT35;56033;51.880;12.632;2022-09-16T13:53:48;20.17;53.14
68981;SHT35;56033;51.880;12.632;2022-09-16T13:56:39;20.20;51.59
68981;SHT35;56033;51.880;12.632;2022-09-16T14:02:29;20.38;53.92
68981;SHT35;56033;51.880;12.632;2022-09-16T14:11:16;20.55;54.82
68981;SHT35;56033;51.880;12.632;2022-09-16T14:14:52;20.62;55.39
68981;SHT35;56033;51.880;12.632;2022-09-16T14:17:46;20.56;53.84
68981;SHT35;56033;51.880;12.632;2022-09-16T14:26:52;20.57;54.57
68981;SHT35;56033;51.880;12.632;2022-09-16T14:29:18;20.59;55.32
68981;SHT35;56033;51.880;12.632;2022-09-16T14:31:46;20.59;55.77
68981;SHT35;56033;51.880;12.632;2022-09-16T14:34:29;20.62;55.88
68981;SHT35;56033;51.880;12.632;2022-09-16T14:36:58;20.63;55.78
68981;SHT35;56033;51.880;12.632;2022-09-16T14:39:33;20.61;54.07
68981;SHT35;56033;51.880;12.632;2022-09-16T14:42:10;20.63;55.52
68981;SHT35;56033;51.880;12.632;2022-09-16T14:45:31;20.61;54.79
68981;SHT35;56033;51.880;12.632;2022-09-16T14:48:26;20.63;54.97
68981;SHT35;56033;51.880;12.632;2022-09-16T14:50:52;20.65;54.69
68981;SHT35;56033;51.880;12.632;2022-09-16T14:56:34;20.59;55.82
68981;SHT35;56033;51.880;12.632;2022-09-16T14:59:02;20.59;56.09
68981;SHT35;56033;51.880;12.632;2022-09-16T15:01:27;20.61;54.91
68981;SHT35;56033;51.880;12.632;2022-09-16T15:04:25;20.65;55.03
68981;SHT35;56033;51.880;12.632;2022-09-16T15:06:54;20.56;53.72
68981;SHT35;56033;51.880;12.632;2022-09-16T15:09:53;20.51;52.51
68981;SHT35;56033;51.880;12.632;2022-09-16T15:16:13;20.51;55.04
68981;SHT35;56033;51.880;12.632;2022-09-16T15:21:45;20.48;53.86
68981;SHT35;56033;51.880;12.632;2022-09-16T15:24:44;20.44;53.18
68981;SHT35;56033;51.880;12.632;2022-09-16T15:27:09;20.46;54.10
68981;SHT35;56033;51.880;12.632;2022-09-16T15:29:47;20.44;55.85
68981;SHT35;56033;51.880;12.632;2022-09-16T15:32:19;20.45;53.74
68981;SHT35;56033;51.880;12.632;2022-09-16T15:34:49;20.48;53.95
68981;SHT35;56033;51.880;12.632;2022-09-16T15:37:33;20.48;55.59
68981;SHT35;56033;51.880;12.632;2022-09-16T15:40:34;20.44;53.94
68981;SHT35;56033;51.880;12.632;2022-09-16T15:45:55;20.48;54.20
68981;SHT35;56033;51.880;12.632;2022-09-16T15:48:54;20.42;54.31
68981;SHT35;56033;51.880;12.632;2022-09-16T15:54:47;20.51;54.24
68981;SHT35;56033;51.880;12.632;2022-09-16T15:57:48;20.39;53.63
68981;SHT35;56033;51.880;12.632;2022-09-16T16:00:13;20.46;54.07
68981;SHT35;56033;51.880;12.632;2022-09-16T16:03:01;20.39;52.64
68981;SHT35;56033;51.880;12.632;2022-09-16T16:06:59;19.49;45.91
68981;SHT35;56033;51.880;12.632;2022-09-16T16:08:53;19.91;52.22
68981;SHT35;56033;51.880;12.632;2022-09-16T16:11:43;19.86;51.96
68981;SHT35;56033;51.880;12.632;2022-09-16T16:14:25;20.04;50.54
68981;SHT35;56033;51.880;12.632;2022-09-16T16:16:55;20.04;51.14
68981;SHT35;56033;51.880;12.632;2022-09-16T16:19:20;19.24;48.15
68981;SHT35;56033;51.880;12.632;2022-09-16T16:21:45;19.31;44.92
68981;SHT35;56033;51.880;12.632;2022-09-16T16:24:31;19.63;49.12
68981;SHT35;56033;51.880;12.632;2022-09-16T16:27:07;19.28;44.80
68981;SHT35;56033;51.880;12.632;2022-09-16T16:29:43;19.51;50.09
68981;SHT35;56033;51.880;12.632;2022-09-16T16:32:10;19.93;52.22
68981;SHT35;56033;51.880;12.632;2022-09-16T16:34:38;20.04;51.67
68981;SHT35;56033;51.880;12.632;2022-09-16T16:37:05;20.00;51.73
68981;SHT35;56033;51.880;12.632;2022-09-16T16:39:32;20.06;52.11
68981;SHT35;56033;51.880;12.632;2022-09-16T16:41:57;20.01;52.86
68981;SHT35;56033;51.880;12.632;2022-09-16T16:44:23;19.96;52.31
68981;SHT35;56033;51.880;12.632;2022-09-16T16:46:53;20.01;53.45
68981;SHT35;56033;51.880;12.632;2022-09-16T16:49:19;20.06;53.40
68981;SHT35;56033;51.880;12.632;2022-09-16T16:51:47;20.08;53.41
68981;SHT35;56033;51.880;12.632;2022-09-16T16:54:13;20.10;53.83
68981;SHT35;56033;51.880;12.632;2022-09-16T16:56:39;20.08;53.31
68981;SHT35;56033;51.880;12.632;2022-09-16T16:59:06;20.08;53.26
68981;SHT35;56033;51.880;12.632;2022-09-16T17:01:32;20.07;53.74
68981;SHT35;56033;51.880;12.632;2022-09-16T17:03:59;20.06;53.41
68981;SHT35;56033;51.880;12.632;2022-09-16T17:06:25;20.06;53.38
68981;SHT35;56033;51.880;12.632;2022-09-16T17:08:51;20.04;53.88
68981;SHT35;56033;51.880;12.632;2022-09-16T17:11:18;20.06;53.99
68981;SHT35;56033;51.880;12.632;2022-09-16T17:13:46;20.01;53.68
68981;SHT35;56033;51.880;12.632;2022-09-16T17:16:14;20.03;54.13
68981;SHT35;56033;51.880;12.632;2022-09-16T17:18:40;20.03;53.76
68981;SHT35;56033;51.880;12.632;2022-09-16T17:21:12;20.01;53.87
68981;SHT35;56033;51.880;12.632;2022-09-16T17:23:38;20.00;54.34
68981;SHT35;56033;51.880;12.632;2022-09-16T17:26:05;20.00;54.35
68981;SHT35;56033;51.880;12.632;2022-09-16T17:28:33;20.00;54.37
68981;SHT35;56033;51.880;12.632;2022-09-16T17:30:59;19.97;52.84
68981;SHT35;56033;51.880;12.632;2022-09-16T17:33:25;20.00;54.30
68981;SHT35;56033;51.880;12.632;2022-09-16T17:36:05;19.97;54.61
68981;SHT35;56033;51.880;12.632;2022-09-16T17:38:31;19.97;53.51
68981;SHT35;56033;51.880;12.632;2022-09-16T17:41:10;20.00;54.02
68981;SHT35;56033;51.880;12.632;2022-09-16T17:43:37;19.98;54.51
68981;SHT35;56033;51.880;12.632;2022-09-16T17:46:04;20.00;53.21
68981;SHT35;56033;51.880;12.632;2022-09-16T17:48:31;20.01;53.12
68981;SHT35;56033;51.880;12.632;2022-09-16T17:50:56;20.03;53.08
68981;SHT35;56033;51.880;12.632;2022-09-16T17:53:22;20.01;54.53
68981;SHT35;56033;51.880;12.632;2022-09-16T17:55:48;20.06;54.48
68981;SHT35;56033;51.880;12.632;2022-09-16T17:58:14;20.07;54.40
68981;SHT35;56033;51.880;12.632;2022-09-16T18:00:41;20.04;54.45
68981;SHT35;56033;51.880;12.632;2022-09-16T18:03:08;20.06;54.54
68981;SHT35;56033;51.880;12.632;2022-09-16T18:05:35;20.03;54.48
68981;SHT35;56033;51.880;12.632;2022-09-16T18:08:01;20.00;54.99
68981;SHT35;56033;51.880;12.632;2022-09-16T18:10:27;20.03;55.03
68981;SHT35;56033;51.880;12.632;2022-09-16T18:12:53;20.01;54.86
68981;SHT35;56033;51.880;12.632;2022-09-16T18:15:19;20.01;54.94
68981;SHT35;56033;51.880;12.632;2022-09-16T18:17:44;20.07;55.02
68981;SHT35;56033;51.880;12.632;2022-09-16T18:20:10;19.77;51.24
68981;SHT35;56033;51.880;12.632;2022-09-16T18:22:36;19.94;53.90
68981;SHT35;56033;51.880;12.632;2022-09-16T18:25:01;19.98;53.87
68981;SHT35;56033;51.880;12.632;2022-09-16T18:27:29;19.98;54.61
68981;SHT35;56033;51.880;12.632;2022-09-16T18:29:55;20.00;54.85
68981;SHT35;56033;51.880;12.632;2022-09-16T18:32:22;19.91;55.21
68981;SHT35;56033;51.880;12.632;2022-09-16T18:34:47;19.98;53.64
68981;SHT35;56033;51.880;12.632;2022-09-16T18:37:13;18.60;45.53
68981;SHT35;56033;51.880;12.632;2022-09-16T18:39:38;19.14;55.30
68981;SHT35;56033;51.880;12.632;2022-09-16T18:42:04;19.49;53.91
68981;SHT35;56033;51.880;12.632;2022-09-16T18:44:29;19.72;53.25
68981;SHT35;56033;51.880;12.632;2022-09-16T18:46:54;19.72;54.49
68981;SHT35;56033;51.880;12.632;2022-09-16T18:49:20;19.83;53.74
68981;SHT35;56033;51.880;12.632;2022-09-16T18:51:49;19.87;54.11
68981;SHT35;56033;51.880;12.632;2022-09-16T18:54:18;19.89;53.65
68981;SHT35;56033;51.880;12.632;2022-09-16T18:56:44;19.81;52.82
68981;SHT35;56033;51.880;12.632;2022-09-16T19:01:37;19.80;52.05
68981;SHT35;56033;51.880;12.632;2022-09-16T19:04:05;19.79;53.92
68981;SHT35;56033;51.880;12.632;2022-09-16T19:06:37;19.80;52.37
68981;SHT35;56033;51.880;12.632;2022-09-16T19:09:04;19.83;54.27
68981;SHT35;56033;51.880;12.632;2022-09-16T19:11:31;19.83;54.13
68981;SHT35;56033;51.880;12.632;2022-09-16T19:13:57;18.38;56.70
68981;SHT35;56033;51.880;12.632;2022-09-16T19:16:23;19.31;55.20
68981;SHT35;56033;51.880;12.632;2022-09-16T19:18:54;18.27;48.23
68981;SHT35;56033;51.880;12.632;2022-09-16T19:21:41;17.86;54.39
68981;SHT35;56033;51.880;12.632;2022-09-16T19:24:11;18.93;53.90
68981;SHT35;56033;51.880;12.632;2022-09-16T19:26:38;19.36;53.16
68981;SHT35;56033;51.880;12.632;2022-09-16T19:29:05;19.62;53.40
68981;SHT35;56033;51.880;12.632;2022-09-16T19:31:32;19.72;53.45
68981;SHT35;56033;51.880;12.632;2022-09-16T19:33:58;19.79;53.74
68981;SHT35;56033;51.880;12.632;2022-09-16T19:36:26;19.80;53.95
68981;SHT35;56033;51.880;12.632;2022-09-16T19:38:53;19.79;53.91
68981;SHT35;56033;51.880;12.632;2022-09-16T19:41:21;19.81;54.15
68981;SHT35;56033;51.880;12.632;2022-09-16T19:43:47;19.84;54.09
68981;SHT35;56033;51.880;12.632;2022-09-16T19:46:16;19.87;54.17
68981;SHT35;56033;51.880;12.632;2022-09-16T19:48:44;19.86;54.30
68981;SHT35;56033;51.880;12.632;2022-09-16T19:51:12;19.89;54.18
68981;SHT35;56033;51.880;12.632;2022-09-16T19:53:39;19.91;54.37
68981;SHT35;56033;51.880;12.632;2022-09-16T19:56:15;19.90;54.65
68981;SHT35;56033;51.880;12.632;2022-09-16T19:58:41;19.96;54.49
68981;SHT35;56033;51.880;12.632;2022-09-16T20:01:09;19.96;54.64
68981;SHT35;56033;51.880;12.632;2022-09-16T20:03:36;20.07;54.89
68981;SHT35;56033;51.880;12.632;2022-09-16T20:08:30;20.11;55.67
68981;SHT35;56033;51.880;12.632;2022-09-16T20:11:09;20.14;55.72
68981;SHT35;56033;51.880;12.632;2022-09-16T20:13:34;20.11;55.82
68981;SHT35;56033;51.880;12.632;2022-09-16T20:16:01;20.10;55.91
68981;SHT35;56033;51.880;12.632;2022-09-16T20:18:29;20.11;55.90
68981;SHT35;56033;51.880;12.632;2022-09-16T20:21:10;20.13;55.96
68981;SHT35;56033;51.880;12.632;2022-09-16T20:23:36;20.13;56.06
68981;SHT35;56033;51.880;12.632;2022-09-16T20:26:04;20.14;55.82
68981;SHT35;56033;51.880;12.632;2022-09-16T20:28:32;20.17;55.63
68981;SHT35;56033;51.880;12.632;2022-09-16T20:30:58;20.14;55.98
68981;SHT35;56033;51.880;12.632;2022-09-16T20:33:24;20.17;55.98
68981;SHT35;56033;51.880;12.632;2022-09-16T20:35:49;20.17;56.00
68981;SHT35;56033;51.880;12.632;2022-09-16T20:38:15;20.15;56.05
68981;SHT35;56033;51.880;12.632;2022-09-16T20:40:40;20.18;56.03
68981;SHT35;56033;51.880;12.632;2022-09-16T20:43:10;20.17;56.46
68981;SHT35;56033;51.880;12.632;2022-09-16T20:45:35;20.17;56.75
68981;SHT35;56033;51.880;12.632;2022-09-16T20:48:01;20.17;56.69
68981;SHT35;56033;51.880;12.632;2022-09-16T20:50:26;20.17;57.09
68981;SHT35;56033;51.880;12.632;2022-09-16T20:52:52;20.18;57.11
68981;SHT35;56033;51.880;12.632;2022-09-16T20:55:17;20.15;57.55
68981;SHT35;56033;51.880;12.632;2022-09-16T20:57:42;20.17;57.16
68981;SHT35;56033;51.880;12.632;2022-09-16T21:00:08;20.18;57.39
68981;SHT35;56033;51.880;12.632;2022-09-16T21:02:34;20.18;57.17
68981;SHT35;56033;51.880;12.632;2022-09-16T21:04:59;20.20;56.91
68981;SHT35;56033;51.880;12.632;2022-09-16T21:07:29;20.21;57.03
68981;SHT35;56033;51.880;12.632;2022-09-16T21:09:54;20.24;56.97
68981;SHT35;56033;51.880;12.632;2022-09-16T21:12:20;20.22;57.37
68981;SHT35;56033;51.880;12.632;2022-09-16T21:14:45;20.21;56.63
68981;SHT35;56033;51.880;12.632;2022-09-16T21:17:11;20.15;56.04
68981;SHT35;56033;51.880;12.632;2022-09-16T21:19:37;20.15;56.07
68981;SHT35;56033;51.880;12.632;2022-09-16T21:22:02;20.18;56.68
68981;SHT35;56033;51.880;12.632;2022-09-16T21:24:28;20.17;57.34
68981;SHT35;56033;51.880;12.632;2022-09-16T21:26:54;20.13;57.24
68981;SHT35;56033;51.880;12.632;2022-09-16T21:29:19;20.14;57.46
68981;SHT35;56033;51.880;12.632;2022-09-16T21:31:46;20.15;57.09
68981;SHT35;56033;51.880;12.632;2022-09-16T21:34:14;20.15;57.39
68981;SHT35;56033;51.880;12.632;2022-09-16T21:36:40;20.14;57.31
68981;SHT35;56033;51.880;12.632;2022-09-16T21:39:07;20.14;57.37
68981;SHT35;56033;51.880;12.632;2022-09-16T21:41:33;20.34;56.88
68981;SHT35;56033;51.880;12.632;2022-09-16T21:43:59;20.32;56.53
68981;SHT35;56033;51.880;12.632;2022-09-16T21:46:28;20.25;56.77
68981;SHT35;56033;51.880;12.632;2022-09-16T21:48:55;20.22;56.79
68981;SHT35;56033;51.880;12.632;2022-09-16T21:51:23;20.21;57.14
68981;SHT35;56033;51.880;12.632;2022-09-16T21:53:51;20.25;56.96
68981;SHT35;56033;51.880;12.632;2022-09-16T21:56:24;20.25;57.05
68981;SHT35;56033;51.880;12.632;2022-09-16T21:58:52;20.24;56.95
68981;SHT35;56033;51.880;12.632;2022-09-16T22:01:23;20.26;56.85
68981;SHT35;56033;51.880;12.632;2022-09-16T22:03:59;20.25;56.86
68981;SHT35;56033;51.880;12.632;2022-09-16T22:06:25;20.18;56.72
68981;SHT35;56033;51.880;12.632;2022-09-16T22:08:55;20.14;57.04
68981;SHT35;56033;51.880;12.632;2022-09-16T22:11:23;20.13;56.97
68981;SHT35;56033;51.880;12.632;2022-09-16T22:13:48;20.10;57.12
68981;SHT35;56033;51.880;12.632;2022-09-16T22:16:18;20.10;57.09
68981;SHT35;56033;51.880;12.632;2022-09-16T22:19:00;20.08;57.11
68981;SHT35;56033;51.880;12.632;2022-09-16T22:21:28;20.08;57.03
68981;SHT35;56033;51.880;12.632;2022-09-16T22:23:57;20.03;57.31
68981;SHT35;56033;51.880;12.632;2022-09-16T22:26:24;20.04;57.60
68981;SHT35;56033;51.880;12.632;2022-09-16T22:28:50;20.01;57.17
68981;SHT35;56033;51.880;12.632;2022-09-16T22:31:24;20.01;57.49
68981;SHT35;56033;51.880;12.632;2022-09-16T22:33:51;20.00;57.51
68981;SHT35;56033;51.880;12.632;2022-09-16T22:36:20;19.98;57.42
68981;SHT35;56033;51.880;12.632;2022-09-16T22:38:59;19.97;57.64
68981;SHT35;56033;51.880;12.632;2022-09-16T22:41:25;19.97;57.47
68981;SHT35;56033;51.880;12.632;2022-09-16T22:43:51;19.96;57.51
68981;SHT35;56033;51.880;12.632;2022-09-16T22:46:22;20.01;57.44
68981;SHT35;56033;51.880;12.632;2022-09-16T22:48:49;19.98;57.41
68981;SHT35;56033;51.880;12.632;2022-09-16T22:51:15;19.96;57.42
68981;SHT35;56033;51.880;12.632;2022-09-16T22:53:42;19.96;57.64
68981;SHT35;56033;51.880;12.632;2022-09-16T22:56:12;19.94;57.61
68981;SHT35;56033;51.880;12.632;2022-09-16T22:58:41;19.94;57.54
68981;SHT35;56033;51.880;12.632;2022-09-16T23:01:14;19.94;57.63
68981;SHT35;56033;51.880;12.632;2022-09-16T23:03:40;19.94;57.63
68981;SHT35;56033;51.880;12.632;2022-09-16T23:06:08;19.94;57.67
68981;SHT35;56033;51.880;12.632;2022-09-16T23:08:36;19.90;57.65
68981;SHT35;56033;51.880;12.632;2022-09-16T23:11:06;19.90;57.73
68981;SHT35;56033;51.880;12.632;2022-09-16T23:13:40;19.91;57.60
68981;SHT35;56033;51.880;12.632;2022-09-16T23:16:12;19.90;57.64
68981;SHT35;56033;51.880;12.632;2022-09-16T23:18:40;19.89;57.60
68981;SHT35;56033;51.880;12.632;2022-09-16T23:21:08;19.87;57.65
68981;SHT35;56033;51.880;12.632;2022-09-16T23:23:39;19.86;57.78
68981;SHT35;56033;51.880;12.632;2022-09-16T23:26:08;19.86;57.72
68981;SHT35;56033;51.880;12.632;2022-09-16T23:28:34;19.87;57.87
68981;SHT35;56033;51.880;12.632;2022-09-16T23:31:09;19.84;57.67
68981;SHT35;56033;51.880;12.632;2022-09-16T23:33:35;19.84;57.82
68981;SHT35;56033;51.880;12.632;2022-09-16T23:36:02;19.84;57.85
68981;SHT35;56033;51.880;12.632;2022-09-16T23:38:28;19.84;57.83
68981;SHT35;56033;51.880;12.632;2022-09-16T23:40:54;19.84;57.83
68981;SHT35;56033;51.880;12.632;2022-09-16T23:43:20;19.84;57.78
68981;SHT35;56033;51.880;12.632;2022-09-16T23:45:45;19.84;57.74
68981;SHT35;56033;51.880;12.632;2022-09-16T23:48:12;19.83;57.75
68981;SHT35;56033;51.880;12.632;2022-09-16T23:50:38;19.81;57.86
68981;SHT35;56033;51.880;12.632;2022-09-16T23:53:04;19.81;57.79
68981;SHT35;56033;51.880;12.632;2022-09-16T23:55:29;19.81;57.85
68981;SHT35;56033;51.880;12.632;2022-09-16T23:57:55;19.84;57.81
